Aviation Digital Data Service (ADDS)

Output produced by METARs form (0324 UTC 19 August 2019)
found at http://www.aviationweather.gov/metar/data/
 
METAR text: HDAM 190300Z 14004KT 9999 FEW023 BKN133 35/24 Q1006
Conditions at: HDAM (AMBOULI DJIBOUTI, DJ) observed 0300 UTC 19 August 2019
Temperature: 35.0°C (95°F)
Dewpoint: 24.0°C (75°F) [RH = 53%]
Pressure (altimeter): 29.70 inches Hg (1006.0 mb)
Winds: from the SE (140 degrees) at 5 MPH (4 knots; 2.1 m/s)
Visibility: 6 or more miles (10+ km)
Ceiling: 13300 feet AGL
Clouds: few clouds at 2300 feet AGL
broken clouds at 13300 feet AGL
Weather: no significant weather observed at this time

METAR text: HDAM 182100Z 17004KT CAVOK 35/25 Q1004
Conditions at: HDAM (AMBOULI DJIBOUTI, DJ) observed 2100 UTC 18 August 2019
Temperature: 35.0°C (95°F)
Dewpoint: 25.0°C (77°F) [RH = 56%]
Pressure (altimeter): 29.65 inches Hg (1004.0 mb)
Winds: from the S (170 degrees) at 5 MPH (4 knots; 2.1 m/s)
Visibility: 6 or more miles (10+ km)
Ceiling: ceiling and visibility are OK
Clouds: unknown
Weather: no significant weather observed at this time

METAR text: HDAM 182000Z 19009KT CAVOK 35/24 Q1004
Conditions at: HDAM (AMBOULI DJIBOUTI, DJ) observed 2000 UTC 18 August 2019
Temperature: 35.0°C (95°F)
Dewpoint: 24.0°C (75°F) [RH = 53%]
Pressure (altimeter): 29.65 inches Hg (1004.0 mb)
Winds: from the S (190 degrees) at 10 MPH (9 knots; 4.6 m/s)
Visibility: 6 or more miles (10+ km)
Ceiling: ceiling and visibility are OK
Clouds: unknown
Weather: no significant weather observed at this time

METAR text: HDAM 181800Z 17005KT CAVOK 33/25 Q1005
Conditions at: HDAM (AMBOULI DJIBOUTI, DJ) observed 1800 UTC 18 August 2019
Temperature: 33.0°C (91°F)
Dewpoint: 25.0°C (77°F) [RH = 63%]
Pressure (altimeter): 29.68 inches Hg (1005.0 mb)
Winds: from the S (170 degrees) at 6 MPH (5 knots; 2.6 m/s)
Visibility: 6 or more miles (10+ km)
Ceiling: ceiling and visibility are OK
Clouds: unknown
Weather: no significant weather observed at this time

METAR text: HDAM 181400Z 0709KT 9/9 FEW023 40/21 Q1002
Conditions at: HDAM (AMBOULI DJIBOUTI, DJ) observed 1400 UTC 18 August 2019
Temperature: 40.0°C (104°F)
Dewpoint: 21.0°C (70°F) [RH = 34%]
Pressure (altimeter): 29.59 inches Hg (1002.0 mb)
Winds: missing
Visibility: missing
Ceiling: at least 12,000 feet AGL
Clouds: few clouds at 2300 feet AGL
Weather: no significant weather observed at this time

METAR text: HDAM 181300Z 34004KT 9/9 FEW023 42/20 Q1002
Conditions at: HDAM (AMBOULI DJIBOUTI, DJ) observed 1300 UTC 18 August 2019
Temperature: 42.0°C (108°F)
Dewpoint: 20.0°C (68°F) [RH = 29%]
Pressure (altimeter): 29.59 inches Hg (1002.0 mb)
Winds: from the NNW (340 degrees) at 5 MPH (4 knots; 2.1 m/s)
Visibility: missing
Ceiling: at least 12,000 feet AGL
Clouds: few clouds at 2300 feet AGL
Weather: no significant weather observed at this time

METAR text: HDAM 181100Z 34010KT 8000 HZ FEW023 42/20 Q1003
Conditions at: HDAM (AMBOULI DJIBOUTI, DJ) observed 1100 UTC 18 August 2019
Temperature: 42.0°C (108°F)
Dewpoint: 20.0°C (68°F) [RH = 29%]
Pressure (altimeter): 29.62 inches Hg (1003.0 mb)
Winds: from the NNW (340 degrees) at 12 MPH (10 knots; 5.1 m/s)
Visibility: 5 miles ( 8 km)
Ceiling: at least 12,000 feet AGL
Clouds: few clouds at 2300 feet AGL
Weather: HZ  (haze)

METAR text: HDAM 181000Z 34009KT 8000 HZ FEW023 42/20 Q1004
Conditions at: HDAM (AMBOULI DJIBOUTI, DJ) observed 1000 UTC 18 August 2019
Temperature: 42.0°C (108°F)
Dewpoint: 20.0°C (68°F) [RH = 29%]
Pressure (altimeter): 29.65 inches Hg (1004.0 mb)
Winds: from the NNW (340 degrees) at 10 MPH (9 knots; 4.6 m/s)
Visibility: 5 miles ( 8 km)
Ceiling: at least 12,000 feet AGL
Clouds: few clouds at 2300 feet AGL
Weather: HZ  (haze)

METAR text: HDAM 180900Z 29008KT 9000 HZ SCT023 SCT133 41/21 Q1005
Conditions at: HDAM (AMBOULI DJIBOUTI, DJ) observed 0900 UTC 18 August 2019
Temperature: 41.0°C (106°F)
Dewpoint: 21.0°C (70°F) [RH = 32%]
Pressure (altimeter): 29.68 inches Hg (1005.0 mb)
Winds: from the WNW (290 degrees) at 9 MPH (8 knots; 4.1 m/s)
Visibility: 6 miles ( 9 km)
Ceiling: at least 12,000 feet AGL
Clouds: scattered clouds at 2300 feet AGL
scattered clouds at 13300 feet AGL
Weather: HZ  (haze)

METAR text: HDAM 180800Z 27010KT 9000 HZ SCT023 SCT133 39/22 Q1005
Conditions at: HDAM (AMBOULI DJIBOUTI, DJ) observed 0800 UTC 18 August 2019
Temperature: 39.0°C (102°F)
Dewpoint: 22.0°C (72°F) [RH = 38%]
Pressure (altimeter): 29.68 inches Hg (1005.0 mb)
Winds: from the W (270 degrees) at 12 MPH (10 knots; 5.1 m/s)
Visibility: 6 miles ( 9 km)
Ceiling: at least 12,000 feet AGL
Clouds: scattered clouds at 2300 feet AGL
scattered clouds at 13300 feet AGL
Weather: HZ  (haze)

METAR text: HDAM 180700Z 25016KT 8000 HZ SCT023 SCT133 38/23 Q1006
Conditions at: HDAM (AMBOULI DJIBOUTI, DJ) observed 0700 UTC 18 August 2019
Temperature: 38.0°C (100°F)
Dewpoint: 23.0°C (73°F) [RH = 42%]
Pressure (altimeter): 29.70 inches Hg (1006.0 mb)
Winds: from the WSW (250 degrees) at 18 MPH (16 knots; 8.2 m/s)
Visibility: 5 miles ( 8 km)
Ceiling: at least 12,000 feet AGL
Clouds: scattered clouds at 2300 feet AGL
scattered clouds at 13300 feet AGL
Weather: HZ  (haze)

METAR text: HDAM 180600Z 30012KT CAVOK 37/23 Q1007
Conditions at: HDAM (AMBOULI DJIBOUTI, DJ) observed 0600 UTC 18 August 2019
Temperature: 37.0°C (99°F)
Dewpoint: 23.0°C (73°F) [RH = 45%]
Pressure (altimeter): 29.73 inches Hg (1007.0 mb)
Winds: from the WNW (300 degrees) at 14 MPH (12 knots; 6.2 m/s)
Visibility: 6 or more miles (10+ km)
Ceiling: ceiling and visibility are OK
Clouds: unknown
Weather: no significant weather observed at this time

Forecast for: HDAM (AMBOULI DJIBOUTI, DJ)
Text: TAF HDAM 182300Z 1900/1924 00000KT 8000 TSRA FEW080CB BKN133
Forecast period: 0000 to 0600 UTC 19 August 2019
Forecast type: FROM: standard forecast or significant change
Winds: calm
Visibility: 5 miles (8 km)
Ceiling: 13300 feet AGL
Clouds: few clouds at 8000 feet AGL
broken clouds at 13300 feet AGL
Weather: TSRA  (rain associated with thunderstorm(s))
Text: BECMG 1906/1912 29010G15KT 8000 HZ SCT133
Forecast period: 0600 to 1500 UTC 19 August 2019
Forecast type: BECOMING: Conditions expected to become as follows by 1200 UTC 19 August 2019
Winds: from the WNW (290 degrees) at 12 MPH (10 knots; 5.1 m/s)
gusting to 17 MPH (15 knots; 7.7 m/s)
Visibility: 5 miles (8 km)
Ceiling: at least 12,000 feet AGL
Clouds: scattered clouds at 13300 feet AGL
Weather: HZ  (haze)
Text: BECMG 1915/1918 VRB05KT FEW133
Forecast period: 1500 UTC 19 August 2019 to 0000 UTC 20 August 2019
Forecast type: BECOMING: Conditions expected to become as follows by 1800 UTC 19 August 2019
Winds: variable direction winds at 6 MPH (5 knots; 2.6 m/s)
Visibility: 5 miles (8 km)
Ceiling: at least 12,000 feet AGL
Clouds: few clouds at 13300 feet AGL
Weather: HZ  (haze)